createdAt,value
2022-10-11T00:01:29.718Z,12.90
2022-10-11T00:04:32.969Z,15.52
2022-10-11T00:07:38.325Z,15.43
2022-10-11T00:10:41.751Z,16.23
2022-10-11T00:13:44.534Z,16.50
2022-10-11T00:16:47.556Z,16.13
2022-10-11T00:19:50.304Z,13.95
2022-10-11T00:22:53.561Z,14.15
2022-10-11T00:26:04.961Z,15.10
2022-10-11T00:29:08.077Z,17.73
2022-10-11T00:32:11.333Z,14.27
2022-10-11T00:35:15.309Z,13.88
2022-10-11T00:38:18.668Z,13.13
2022-10-11T00:41:22.064Z,17.10
2022-10-11T00:44:28.267Z,15.57
2022-10-11T00:47:31.122Z,15.73
2022-10-11T00:50:36.720Z,17.87
2022-10-11T00:53:41.318Z,15.52
2022-10-11T00:56:54.795Z,17.75
2022-10-11T00:59:58.870Z,18.83
2022-10-11T01:03:02.775Z,15.33
2022-10-11T01:06:06.534Z,16.73
2022-10-11T01:09:11.226Z,18.30
2022-10-11T01:12:18.755Z,18.50
2022-10-11T01:15:55.279Z,17.43
2022-10-11T01:19:20.123Z,16.03
2022-10-11T01:22:41.064Z,15.63
2022-10-11T01:26:09.129Z,15.38
2022-10-11T01:29:18.286Z,14.65
2022-10-11T01:32:40.963Z,15.63
2022-10-11T01:36:27.796Z,15.57
2022-10-11T01:39:43.670Z,16.20
2022-10-11T01:42:48.293Z,16.55
2022-10-11T01:45:53.547Z,16.45
2022-10-11T01:49:01.263Z,15.20
2022-10-11T01:52:06.950Z,16.23
2022-10-11T01:55:44.296Z,15.95
2022-10-11T01:59:11.959Z,16.33
2022-10-11T02:02:32.091Z,15.50
2022-10-11T02:05:43.424Z,16.37
2022-10-11T02:08:59.211Z,15.27
2022-10-11T02:12:10.081Z,16.70
2022-10-11T02:15:14.644Z,17.08
2022-10-11T02:18:22.221Z,18.12
2022-10-11T02:21:26.159Z,15.93
2022-10-11T02:24:34.749Z,15.43
2022-10-11T02:27:40.768Z,17.90
2022-10-11T02:30:47.405Z,15.63
2022-10-11T02:34:03.001Z,15.90
2022-10-11T02:37:12.168Z,18.10
2022-10-11T02:40:20.056Z,16.30
2022-10-11T02:43:45.764Z,17.60
2022-10-11T02:46:51.932Z,14.73
2022-10-11T02:50:14.825Z,16.87
2022-10-11T02:53:35.548Z,16.17
2022-10-11T02:56:38.626Z,16.07
2022-10-11T02:59:44.049Z,15.75
2022-10-11T03:02:48.582Z,18.37
2022-10-11T03:05:51.364Z,16.52
2022-10-11T03:08:54.283Z,18.93
2022-10-11T03:11:57.404Z,14.47
2022-10-11T03:15:00.893Z,16.77
2022-10-11T03:18:04.894Z,13.95
2022-10-11T03:21:07.806Z,16.23
2022-10-11T03:24:14.960Z,15.27
2022-10-11T03:27:20.460Z,16.40
2022-10-11T03:30:23.921Z,14.55
2022-10-11T03:33:26.799Z,14.43
2022-10-11T03:36:30.585Z,16.02
2022-10-11T03:39:33.414Z,16.20
2022-10-11T03:42:37.000Z,15.23
2022-10-11T03:45:42.431Z,21.10
2022-10-11T03:48:46.170Z,19.52
2022-10-11T03:51:49.137Z,20.50
2022-10-11T03:54:52.426Z,19.33
2022-10-11T03:57:55.014Z,19.27
2022-10-11T04:01:02.260Z,16.77
2022-10-11T04:04:12.148Z,18.37
2022-10-11T04:07:16.629Z,16.05
2022-10-11T04:10:21.395Z,17.83
2022-10-11T04:13:24.952Z,16.50
2022-10-11T04:16:28.874Z,15.57
2022-10-11T04:19:32.802Z,15.57
2022-10-11T04:22:37.206Z,16.58
2022-10-11T04:25:40.134Z,14.90
2022-10-11T04:28:47.364Z,16.17
2022-10-11T04:31:50.685Z,15.95
2022-10-11T04:34:53.897Z,18.98
2022-10-11T04:37:59.214Z,18.70
2022-10-11T04:41:10.519Z,14.63
2022-10-11T04:44:13.732Z,17.83
2022-10-11T04:47:16.847Z,17.83
2022-10-11T04:50:21.740Z,14.82
2022-10-11T04:53:25.680Z,15.57
2022-10-11T04:56:32.291Z,15.50
2022-10-11T04:59:36.767Z,15.00
2022-10-11T05:02:41.378Z,16.50
2022-10-11T05:05:45.362Z,21.75
2022-10-11T05:08:48.642Z,20.23
2022-10-11T05:11:52.812Z,17.97
2022-10-11T05:15:08.711Z,18.13
2022-10-11T05:18:18.741Z,21.23
2022-10-11T05:21:28.357Z,19.10
2022-10-11T05:24:35.223Z,21.67
2022-10-11T05:27:41.368Z,17.77
2022-10-11T05:30:44.901Z,23.27
2022-10-11T05:33:51.730Z,24.27
2022-10-11T05:36:56.827Z,24.33
2022-10-11T05:40:00.240Z,20.45
2022-10-11T05:43:04.272Z,19.37
2022-10-11T05:46:09.105Z,21.73
2022-10-11T05:49:13.032Z,20.42
2022-10-11T05:52:20.495Z,25.88
2022-10-11T05:55:23.810Z,23.35
2022-10-11T05:58:27.432Z,23.50
2022-10-11T06:01:30.576Z,21.33
2022-10-11T06:04:37.255Z,22.42
2022-10-11T06:07:40.409Z,22.65
2022-10-11T06:10:45.237Z,18.98
2022-10-11T06:13:48.681Z,21.43
2022-10-11T06:16:53.013Z,18.97
2022-10-11T06:20:00.589Z,18.23
2022-10-11T06:23:07.224Z,20.37
2022-10-11T06:26:16.162Z,19.77
2022-10-11T06:29:19.719Z,17.60
2022-10-11T06:32:23.291Z,22.10
2022-10-11T06:35:28.217Z,16.60
2022-10-11T06:38:35.021Z,17.45
2022-10-11T06:41:42.099Z,19.70
2022-10-11T06:44:44.955Z,16.30
2022-10-11T06:47:50.247Z,19.73
2022-10-11T06:51:00.057Z,19.17
2022-10-11T06:54:05.421Z,14.73
2022-10-11T06:57:08.780Z,20.80
2022-10-11T07:00:14.435Z,14.07
2022-10-11T07:03:22.263Z,14.60
2022-10-11T07:06:28.062Z,15.57
2022-10-11T07:09:34.645Z,16.60
2022-10-11T07:12:38.409Z,21.02
2022-10-11T07:15:41.399Z,27.80
2022-10-11T07:18:48.713Z,22.73
2022-10-11T07:21:52.276Z,24.80
2022-10-11T07:24:55.560Z,28.75
2022-10-11T07:27:58.949Z,25.42
2022-10-11T07:31:09.377Z,23.93
2022-10-11T07:34:14.422Z,25.37
2022-10-11T07:37:17.898Z,20.15
2022-10-11T07:40:22.783Z,19.08
2022-10-11T07:43:26.369Z,20.42
2022-10-11T07:46:30.394Z,20.20
2022-10-11T07:49:33.456Z,18.13
2022-10-11T07:52:36.655Z,17.65
2022-10-11T07:55:43.059Z,20.02
2022-10-11T07:58:51.698Z,15.88
2022-10-11T08:01:59.303Z,16.00
2022-10-11T08:05:11.192Z,16.93
2022-10-11T08:08:15.047Z,17.33
2022-10-11T08:11:27.023Z,16.67
2022-10-11T08:18:34.500Z,21.87
2022-10-11T08:22:43.438Z,17.60
2022-10-11T08:25:49.536Z,17.37
2022-10-11T08:28:54.817Z,17.85
2022-10-11T08:32:01.538Z,17.98
2022-10-11T08:35:06.405Z,18.33
2022-10-11T08:38:10.498Z,16.83
2022-10-11T08:41:20.902Z,19.00
2022-10-11T08:45:09.915Z,16.25
2022-10-11T08:48:24.275Z,19.42
2022-10-11T08:51:34.451Z,20.77
2022-10-11T08:54:51.157Z,19.30
2022-10-11T08:57:56.024Z,23.27
2022-10-11T09:01:00.805Z,21.75
2022-10-11T09:04:06.421Z,19.73
2022-10-11T09:07:31.463Z,21.13
2022-10-11T09:10:44.550Z,24.60
2022-10-11T09:14:13.263Z,21.42
2022-10-11T09:17:39.751Z,22.33
2022-10-11T09:20:53.268Z,19.65
2022-10-11T09:24:21.325Z,21.73
2022-10-11T09:28:01.683Z,22.80
2022-10-11T09:31:11.072Z,22.33
2022-10-11T09:34:15.737Z,21.55
2022-10-11T09:37:33.062Z,18.70
2022-10-11T09:41:06.093Z,21.60
2022-10-11T09:44:48.216Z,20.87
2022-10-11T09:47:59.245Z,19.12
2022-10-11T09:51:12.397Z,17.35
2022-10-11T09:54:18.407Z,21.65
2022-10-11T09:57:31.187Z,20.60
2022-10-11T10:00:35.107Z,18.70
2022-10-11T10:03:44.566Z,19.45
2022-10-11T10:06:48.449Z,17.45
2022-10-11T10:09:54.328Z,20.60
2022-10-11T10:13:06.404Z,18.33
2022-10-11T10:16:28.505Z,15.77
2022-10-11T10:19:48.600Z,17.73
2022-10-11T10:22:59.171Z,15.80
2022-10-11T10:26:16.271Z,17.15
2022-10-11T10:29:20.311Z,16.60
2022-10-11T10:32:30.988Z,16.70
2022-10-11T10:35:47.593Z,15.15
2022-10-11T10:39:21.180Z,17.77
2022-10-11T10:42:25.644Z,15.23
2022-10-11T10:45:39.383Z,16.10
2022-10-11T10:52:39.008Z,16.42
2022-10-11T10:55:46.045Z,16.45
2022-10-11T10:59:19.171Z,18.70
2022-10-11T11:02:41.522Z,17.63
2022-10-11T11:06:07.823Z,20.30
2022-10-11T11:09:37.341Z,15.00
2022-10-11T11:13:05.131Z,16.87
2022-10-11T11:16:30.953Z,17.33
2022-10-11T11:19:59.662Z,16.27
2022-10-11T11:23:23.810Z,19.77
2022-10-11T11:26:49.434Z,14.25
2022-10-11T11:30:32.221Z,16.62
2022-10-11T11:33:59.485Z,16.55
2022-10-11T11:37:09.953Z,14.90
2022-10-11T11:40:12.684Z,15.27
2022-10-11T11:43:23.221Z,13.85
2022-10-11T11:46:36.175Z,16.42
2022-10-11T11:50:04.536Z,15.68
2022-10-11T11:53:26.233Z,14.07
2022-10-11T11:56:45.392Z,14.53
2022-10-11T12:00:04.112Z,14.77
2022-10-11T12:03:24.164Z,15.77
2022-10-11T12:06:47.878Z,15.45
2022-10-11T12:10:36.576Z,15.77
2022-10-11T12:13:41.002Z,21.57
2022-10-11T12:17:21.913Z,15.75
2022-10-11T12:20:39.211Z,14.48
2022-10-11T12:23:57.330Z,16.27
2022-10-11T12:27:38.608Z,13.93
2022-10-11T12:30:49.224Z,16.53
2022-10-11T12:34:16.496Z,17.17
2022-10-11T12:37:25.135Z,15.13
2022-10-11T12:40:42.223Z,15.20
2022-10-11T12:43:50.331Z,20.80
2022-10-11T12:46:53.860Z,15.57
2022-10-11T12:50:23.375Z,15.35
2022-10-11T12:54:14.404Z,14.15
2022-10-11T12:57:45.957Z,16.05
2022-10-11T13:00:56.561Z,16.97
2022-10-11T13:04:12.646Z,17.77
2022-10-11T13:07:24.478Z,17.55
2022-10-11T13:10:44.914Z,16.50
2022-10-11T13:14:30.198Z,19.35
2022-10-11T13:17:39.179Z,15.40
2022-10-11T13:20:45.134Z,17.70
2022-10-11T13:23:51.355Z,18.83
2022-10-11T13:26:58.364Z,17.20
2022-10-11T13:30:12.261Z,16.75
2022-10-11T13:33:24.296Z,19.13
2022-10-11T13:36:33.805Z,17.30
2022-10-11T13:39:39.247Z,19.50
2022-10-11T13:42:51.084Z,14.90
2022-10-11T13:45:58.535Z,18.17
2022-10-11T13:49:07.255Z,16.73
2022-10-11T13:52:22.273Z,19.47
2022-10-11T13:55:39.315Z,14.70
2022-10-11T13:58:48.708Z,18.52
2022-10-11T14:01:59.003Z,17.10
2022-10-11T14:05:05.505Z,19.20
2022-10-11T14:08:49.174Z,17.97
2022-10-11T14:11:57.237Z,15.77
2022-10-11T14:15:34.447Z,17.27
2022-10-11T14:18:38.134Z,14.77
2022-10-11T14:21:46.558Z,16.73
2022-10-11T14:25:04.214Z,16.70
2022-10-11T14:28:14.362Z,17.40
2022-10-11T14:31:25.297Z,21.33
2022-10-11T14:34:32.095Z,17.92
2022-10-11T14:37:36.585Z,24.27
2022-10-11T14:40:52.169Z,22.33
2022-10-11T14:43:57.297Z,16.80
2022-10-11T14:47:06.520Z,17.60
2022-10-11T14:50:23.441Z,21.67
2022-10-11T14:53:27.115Z,17.40
2022-10-11T14:56:35.003Z,22.77
2022-10-11T14:59:39.837Z,22.37
2022-10-11T15:02:45.590Z,24.65
2022-10-11T15:05:53.524Z,22.13
2022-10-11T15:08:58.736Z,19.20
2022-10-11T15:12:01.769Z,25.40
2022-10-11T15:15:04.919Z,20.20
2022-10-11T15:18:17.205Z,24.25
2022-10-11T15:21:25.443Z,27.95
2022-10-11T15:24:41.328Z,24.57
2022-10-11T15:27:46.000Z,20.60
2022-10-11T15:30:58.066Z,24.98
2022-10-11T15:34:08.561Z,25.15
2022-10-11T15:37:13.212Z,23.98
2022-10-11T15:40:28.389Z,28.60
2022-10-11T15:43:39.299Z,25.90
2022-10-11T15:46:52.284Z,28.10
2022-10-11T15:49:56.250Z,25.75
2022-10-11T15:53:33.524Z,24.60
2022-10-11T15:56:38.388Z,23.67
2022-10-11T15:59:48.517Z,29.07
2022-10-11T16:02:59.289Z,26.48
2022-10-11T16:06:14.291Z,20.80
2022-10-11T16:09:17.615Z,26.85
2022-10-11T16:12:26.287Z,24.17
2022-10-11T16:15:34.196Z,23.60
2022-10-11T16:18:38.495Z,27.62
2022-10-11T16:21:42.796Z,21.83
2022-10-11T16:24:55.314Z,25.60
2022-10-11T16:28:06.464Z,23.07
2022-10-11T16:31:18.360Z,26.57
2022-10-11T16:34:24.757Z,27.98
2022-10-11T16:37:36.417Z,24.12
2022-10-11T16:40:50.302Z,29.27
2022-10-11T16:44:02.576Z,37.83
2022-10-11T16:47:20.569Z,69.53
2022-10-11T16:50:27.491Z,73.32
2022-10-11T16:53:44.217Z,81.53
2022-10-11T16:56:52.283Z,89.72
2022-10-11T17:00:14.282Z,68.67
2022-10-11T17:03:21.361Z,55.07
2022-10-11T17:06:27.353Z,45.75
2022-10-11T17:09:41.548Z,37.88
2022-10-11T17:12:50.175Z,39.88
2022-10-11T17:15:58.810Z,33.07
2022-10-11T17:19:03.181Z,34.80
2022-10-11T17:22:08.260Z,37.00
2022-10-11T17:25:12.844Z,37.63
2022-10-11T17:28:19.619Z,37.05
2022-10-11T17:31:40.294Z,41.67
2022-10-11T17:34:55.329Z,43.90
2022-10-11T17:38:05.926Z,42.60
2022-10-11T17:41:17.593Z,45.80
2022-10-11T17:44:24.728Z,41.05
2022-10-11T17:47:37.333Z,42.77
2022-10-11T17:50:46.983Z,47.43
2022-10-11T17:53:54.749Z,43.60
2022-10-11T17:56:59.976Z,41.97
2022-10-11T18:00:11.510Z,42.22
2022-10-11T18:03:45.608Z,39.00
2022-10-11T18:06:56.551Z,39.30
2022-10-11T18:10:04.511Z,41.78
2022-10-11T18:13:10.969Z,36.47
2022-10-11T18:16:33.210Z,39.70
2022-10-11T18:19:45.321Z,41.60
2022-10-11T18:23:04.563Z,40.90
2022-10-11T18:26:26.711Z,48.35
2022-10-11T18:29:38.632Z,43.35
2022-10-11T18:32:41.908Z,51.72
2022-10-11T18:35:51.584Z,47.07
2022-10-11T18:39:09.231Z,43.97
2022-10-11T18:42:23.224Z,51.08
2022-10-11T18:45:32.601Z,46.53
2022-10-11T18:48:42.404Z,38.92
2022-10-11T18:51:50.367Z,47.13
2022-10-11T18:55:13.455Z,43.00
2022-10-11T18:58:31.008Z,43.20
2022-10-11T19:01:59.252Z,44.97
2022-10-11T19:05:09.262Z,49.13
2022-10-11T19:08:33.661Z,48.57
2022-10-11T19:11:42.603Z,54.43
2022-10-11T19:14:57.647Z,48.20
2022-10-11T19:18:01.886Z,52.20
2022-10-11T19:21:10.367Z,53.95
2022-10-11T19:24:30.291Z,56.27
2022-10-11T19:27:44.392Z,56.43
2022-10-11T19:30:49.239Z,59.03
2022-10-11T19:34:01.288Z,52.72
2022-10-11T19:37:09.528Z,71.97
2022-10-11T19:40:21.278Z,61.00
2022-10-11T19:43:44.764Z,58.10
2022-10-11T19:46:53.263Z,57.62
2022-10-11T19:49:56.352Z,52.65
2022-10-11T19:53:07.316Z,54.45
2022-10-11T19:56:19.438Z,57.13
2022-10-11T19:59:30.298Z,65.93
2022-10-11T20:02:37.840Z,54.85
2022-10-11T20:05:42.314Z,54.67
2022-10-11T20:09:27.537Z,49.42
2022-10-11T20:12:29.360Z,48.10
2022-10-11T20:15:37.394Z,50.00
2022-10-11T20:18:42.776Z,49.42
2022-10-11T20:21:45.595Z,51.95
2022-10-11T20:24:55.311Z,53.63
2022-10-11T20:28:00.265Z,57.10
2022-10-11T20:31:11.633Z,56.00
2022-10-11T20:34:15.382Z,82.45
2022-10-11T20:37:19.288Z,107.53
2022-10-11T20:40:22.118Z,107.00
2022-10-11T20:43:28.686Z,110.80
2022-10-11T20:46:33.916Z,101.47
2022-10-11T20:49:37.636Z,91.50
2022-10-11T20:52:54.526Z,73.45
2022-10-11T21:00:34.357Z,61.77
2022-10-11T21:03:40.180Z,53.00
2022-10-11T21:06:43.038Z,54.67
2022-10-11T21:10:08.505Z,58.03
2022-10-11T21:13:14.278Z,50.92
2022-10-11T21:16:30.877Z,48.50
2022-10-11T21:19:46.282Z,49.27
2022-10-11T21:22:49.353Z,47.33
2022-10-11T21:26:02.942Z,46.55
2022-10-11T21:29:09.237Z,50.65
2022-10-11T21:32:15.494Z,47.73
2022-10-11T21:35:20.150Z,56.40
2022-10-11T21:38:28.302Z,46.30
2022-10-11T21:41:47.831Z,52.00
2022-10-11T21:45:05.676Z,51.15
2022-10-11T21:48:22.280Z,45.07
2022-10-11T21:51:32.414Z,48.07
2022-10-11T21:54:35.478Z,43.92
2022-10-11T21:57:38.448Z,46.15
2022-10-11T22:00:41.524Z,52.47
2022-10-11T22:04:43.760Z,46.80
2022-10-11T22:07:58.443Z,45.67
2022-10-11T22:11:18.924Z,43.67
2022-10-11T22:14:29.926Z,49.70
2022-10-11T22:17:33.088Z,43.53
2022-10-11T22:20:40.729Z,46.73
2022-10-11T22:23:46.259Z,43.63
2022-10-11T22:26:54.547Z,43.67
2022-10-11T22:29:57.499Z,41.15
2022-10-11T22:33:36.408Z,42.20
2022-10-11T22:37:11.151Z,43.80
2022-10-11T22:40:57.954Z,40.43
2022-10-11T22:44:01.458Z,45.60
2022-10-11T22:47:04.492Z,43.95
2022-10-11T22:54:26.594Z,44.70
2022-10-11T22:57:36.591Z,44.07
2022-10-11T23:00:42.226Z,43.63
2022-10-11T23:03:50.706Z,39.65
2022-10-11T23:06:55.347Z,41.42
2022-10-11T23:09:59.592Z,42.47
2022-10-11T23:13:06.181Z,40.53
2022-10-11T23:16:13.441Z,41.67
2022-10-11T23:19:16.738Z,43.20
2022-10-11T23:22:21.273Z,40.47
2022-10-11T23:25:24.215Z,37.93
2022-10-11T23:28:29.595Z,37.50
2022-10-11T23:31:32.151Z,37.63
2022-10-11T23:34:35.220Z,42.22
2022-10-11T23:37:39.493Z,40.50
2022-10-11T23:40:44.264Z,39.97
2022-10-11T23:43:46.883Z,42.50
2022-10-11T23:46:49.917Z,39.03
2022-10-11T23:49:53.895Z,39.90
2022-10-11T23:52:57.253Z,37.90
2022-10-11T23:56:00.481Z,39.73
2022-10-11T23:59:04.448Z,37.83
